Station info - map view · info · telemetry · weather · raw · status · beacons · messages · bulletins · browse · moving · my account
Callsign, ship name or locator: Clear       
It is possible to search using wildcards (*?) after a prefix. Example: OH*
APRS station SP9BFQ-9 - show graphs
Map loading...
Comment: Megi3 w trasie 145.550
Mic-E message: En route
Location: 48°31.75' N 9°04.66' E - locator JN48MM97HA - show map - static map
5.5 miles South bearing 191° from Dettenhausen, Regierungsbezirk Tübingen, Baden-Württemberg, Germany [?]
6.5 miles South bearing 174° from Weil im Schönbuch, Regierungsbezirk Stuttgart, Baden-Württemberg, Germany
18.1 miles South bearing 195° from Stuttgart, Regierungsbezirk Stuttgart, Baden-Württemberg, Germany
71.8 miles Southeast bearing 157° from Mannheim, Baden-Württemberg, Germany
Last position: 2017-10-21 03:53:16 EDT (6h18m ago)
2017-10-21 09:53:16 CEST local time at Dettenhausen, Germany [?]
Altitude: 1056 ft
Course:
Speed: 35 MPH
Device: Yaesu: FT2D (ht)
Last path: SP9BFQ-9>TX3QW5 via WIDE1-1,WIDE2-1,qAR,DB0GKM (good)
Positions stored: 9059
Packet rate: 400 seconds between packets on average during 4806 seconds.
Stations near current position of SP9BFQ-9 - show more
callsign distance last heard - EDT      callsign distance last heard - EDT
DL9SA-14.6 miles 149°2017-09-28 06:17:54 DO1SRT5.0 miles 114°2017-10-20 12:31:48
N15103195.2 miles 122°2017-09-24 20:33:56 EL-DB0TI5.7 miles 106°2017-10-16 03:22:42
438.950-5.7 miles 107°2017-10-21 10:03:44 DB0REU B5.7 miles 107°2017-10-18 15:25:31
DB0REU-B5.7 miles 107°2017-10-18 15:25:41 DL2GKM-95.8 miles 114°2017-10-21 08:01:51
PS-DK7TD5.9 miles 106°2017-10-21 10:00:26 DO0RT-C6.1 miles 112°2017-10-18 15:20:53
DK6TE-96.3 miles 113°2017-10-18 15:19:10 DL6SCT6.3 miles 114°2017-10-06 15:07:47
DO9IUK-76.5 miles 109°2017-10-09 02:03:59 PS-DB0XHI6.7 miles 92°2017-10-21 10:00:33
DB0XHI-66.7 miles 92°2017-10-21 10:10:04 DB0XHI-106.7 miles 92°2017-10-21 09:53:38
DK8TQ B6.8 miles 183°2017-10-19 17:45:01 DK8TQ-B6.8 miles 183°2017-10-19 17:45:11
DG1SAE6.8 miles 344°2017-10-09 11:13:33 DO4HBR-76.9 miles 244°2017-10-21 10:11:07
Stations which heard SP9BFQ-9 directly on radio –
callsign pkts first heard - EDT last heard longest (tx => rx) longest at - EDT
DB0YQ 4 2017-10-05 19:28:18 2017-10-05 20:21:38 JO50WI > JN69CQ 50.0 miles 162° 2017-10-05 19:28:18
SR9DZB 7 2017-10-03 01:10:18 2017-10-05 12:46:54 JO90HQ > JO90IS 7.4 miles 20° 2017-10-05 12:46:54
DB0VOX 5 2017-10-05 20:27:37 2017-10-05 21:01:52 JN59QO > JN59MK 19.6 miles 229° 2017-10-05 20:27:37
DB0KUN 4 2017-10-05 21:46:06 2017-10-05 22:17:24 JN49PB > JN49TH 25.2 miles 45° 2017-10-05 22:17:24
DB0BL 1 2017-10-05 21:28:39 2017-10-05 21:28:39 JN59CE > JN58EV 23.6 miles 163° 2017-10-05 21:28:39
DL3SL-6 4 2017-10-05 21:57:38 2017-10-05 22:04:13 JN49SF > JN49RE 6.0 miles 250° 2017-10-05 21:57:38
DB0GKM 33 2017-10-05 23:02:57 2017-10-21 03:53:16 JN48ON > JN48NK 10.1 miles 198° 2017-10-19 13:33:26
DM0MW 1 2017-10-05 18:13:30 2017-10-05 18:13:30 JO61OA > JO60LX 8.9 miles 264° 2017-10-05 18:13:30
SR9NDJ 15 2017-10-04 12:16:32 2017-10-04 14:38:30 JO90PO > JO90RN 7.8 miles 114° 2017-10-04 14:38:30
DB0HZG 4 2017-10-05 22:55:02 2017-10-20 13:31:44 JN48PO > JN48MP 12.8 miles 275° 2017-10-20 13:31:44
DK1EC-1 1 2017-10-05 20:49:46 2017-10-05 20:49:46 JN59MI > JN59KM 14.4 miles 328° 2017-10-05 20:49:46
DB0RBB-10 1 2017-10-05 22:41:35 2017-10-05 22:41:35 JN48MR > JN48MQ 3.3 miles 204° 2017-10-05 22:41:35
DB0SAA-10 24 2017-10-09 02:40:12 2017-10-21 02:41:47 JN48XP > JN58BT 11.9 miles 30° 2017-10-16 11:46:57
DB0ISA-10 30 2017-10-05 22:50:24 2017-10-21 03:34:10 JN48WR > JN48RN 22.1 miles 242° 2017-10-12 01:38:18
DB0ISA 11 2017-10-05 22:21:29 2017-10-20 13:47:17 JN48OX > JN48RN 30.9 miles 162° 2017-10-05 22:21:29
DB0SPB 2 2017-10-05 16:55:31 2017-10-05 17:03:44 JO71LF > JO70IX 20.5 miles 211° 2017-10-05 16:55:31
DH9SB 2 2017-10-05 22:09:11 2017-10-05 22:10:10 JN49PD > JN49NE 8.2 miles 287° 2017-10-05 22:09:11
DL6SH-10 1 2017-10-05 22:21:24 2017-10-05 22:21:24 JN48OX > JN48SW 15.6 miles 99° 2017-10-05 22:21:24
DB0RMK 2 2017-10-05 22:34:27 2017-10-19 00:08:50 JN48VQ > JN48RV 20.7 miles 318° 2017-10-19 00:08:50
DL4SBK-10 3 2017-10-05 22:26:24 2017-10-10 12:47:12 JN48MS > JN48PV 14.1 miles 58° 2017-10-05 22:37:05
DB0EBZ 3 2017-10-05 21:16:01 2017-10-05 21:23:26 JN59EF > JN59GB 14.3 miles 147° 2017-10-05 21:23:26
DB0ZWI-10 4 2017-10-05 18:47:50 2017-10-05 19:05:05 JO60DN > JO60FR 14.8 miles 30° 2017-10-05 19:05:05
DB0SAX 1 2017-10-05 18:05:25 2017-10-05 18:05:25 JO61QB > JO61LC 17.6 miles 282° 2017-10-05 18:05:25
DG1JLA-3 5 2017-10-05 18:15:30 2017-10-05 18:33:58 JO60KT > JO60LV 9.4 miles 37° 2017-10-05 18:33:58
DO4DR-10 2 2017-10-05 18:51:51 2017-10-05 18:53:26 JO60FP > JO60GT 12.4 miles 12° 2017-10-05 18:53:26
DB0XHI-10 25 2017-10-05 22:58:52 2017-10-21 03:44:17 JN48PO > JN48OM 6.8 miles 201° 2017-10-19 13:25:03
SR6NPK 16 2017-10-05 15:42:49 2017-10-05 16:41:24 JO81ED > JO70TS 40.1 miles 232° 2017-10-05 15:42:49
SQ9KFZ-2 31 2017-10-03 00:45:15 2017-10-05 12:22:58 JO90PO > JO90NU 18.7 miles 336° 2017-10-04 12:14:15
DB0DLG-10 7 2017-10-09 05:03:53 2017-10-18 23:35:02 JN48WP > JN58FM 24.8 miles 110° 2017-10-16 11:49:07
DB0ODE-10 2 2017-10-05 21:48:06 2017-10-05 21:52:08 JN49UE > JN49MH 30.6 miles 289° 2017-10-05 21:48:06
DB0FEU-1 2 2017-10-05 21:25:26 2017-10-05 21:31:58 JN59BF > JN59DD 8.7 miles 113° 2017-10-05 21:31:58
DB0AB-10 3 2017-10-05 21:11:59 2017-10-05 21:19:24 JN59FG > JN59GD 8.5 miles 153° 2017-10-05 21:19:24
DB0OFI 41 2017-10-05 22:48:18 2017-10-20 14:09:14 JN48WP > JN48PR 26.7 miles 282° 2017-10-10 12:03:54
DO5VC-10 2 2017-10-05 17:49:23 2017-10-05 17:51:23 JO61UC > JO61UA 5.9 miles 207° 2017-10-05 17:49:23
DB0TE 3 2017-10-10 12:00:34 2017-10-17 02:11:19 JN48XP > JN48XK 15.4 miles 179° 2017-10-17 02:11:19
DB0HDH 99 2017-10-08 14:08:56 2017-10-21 02:33:10 JN48XP > JN58BQ 9.6 miles 71° 2017-10-11 02:09:58
DB1DT 2 2017-10-05 21:36:00 2017-10-05 21:42:03 JN59AE > JN49XC 7.7 miles 207° 2017-10-05 21:36:00
DB0PIB-10 16 2017-10-05 16:53:29 2017-10-05 18:01:23 JO61RB > JO71EC 38.9 miles 85° 2017-10-05 18:01:23

Only position packets which were originated by the station are shown here. The range statistics show some extra long hops, because some digipeaters do not correctly add themselves to the digipeater path. Please check the raw packets.
About this site
This page shows real-time information collected from the Automatic Position Reporting System Internet network (APRS-IS). APRS is used by amateur (ham) radio operators to transmit real-time position information, weather data, telemetry and messages over the radio. A vehicle equipped with a GPS receiver, a VHF transmitter or HF transceiver and a small computer device called a tracker transmits it's location, speed and course in a small data packet, which is then received by a nearby iGate receiving site which forwards the packet on the Internet. Systems connected to the Internet can send information on the APRS-IS without a radio transmitter, or collect and display information transmitted anywhere in the world.
FAQ · Blog · Discussion group · Linking to aprs.fi · AIS sites · Service status · Database statistics · Advertising on aprs.fi · Technical details · API · Change log · Planned changes · Credits and thanks · Terms Of Service · iPhone/iPad APRS